createdAt,value
2024-05-09T00:00:52.936Z,31.53
2024-05-09T00:03:23.808Z,31.56
2024-05-09T00:05:54.933Z,31.55
2024-05-09T00:08:25.937Z,31.64
2024-05-09T00:10:57.153Z,31.67
2024-05-09T00:13:28.048Z,31.76
2024-05-09T00:15:59.449Z,31.77
2024-05-09T00:18:30.282Z,31.82
2024-05-09T00:21:01.886Z,31.87
2024-05-09T00:23:33.069Z,31.91
2024-05-09T00:26:04.640Z,31.92
2024-05-09T00:28:35.514Z,31.94
2024-05-09T00:31:06.845Z,31.96
2024-05-09T00:33:38.094Z,31.96
2024-05-09T00:36:09.366Z,32.01
2024-05-09T00:38:40.915Z,32.04
2024-05-09T00:41:12.033Z,32.02
2024-05-09T00:43:42.919Z,32.05
2024-05-09T00:46:14.087Z,32.07
2024-05-09T00:48:45.112Z,32.09
2024-05-09T00:51:16.841Z,32.12
2024-05-09T00:53:48.748Z,32.16
2024-05-09T00:56:23.006Z,32.17
2024-05-09T00:58:54.693Z,32.27
2024-05-09T01:01:26.558Z,32.31
2024-05-09T01:03:58.233Z,32.32
2024-05-09T01:06:29.501Z,32.37
2024-05-09T01:09:00.725Z,32.37
2024-05-09T01:11:42.063Z,32.43
2024-05-09T01:14:13.272Z,32.42
2024-05-09T01:16:44.783Z,32.51
2024-05-09T01:19:24.233Z,32.32
2024-05-09T01:21:55.548Z,32.46
2024-05-09T01:24:26.628Z,32.60
2024-05-09T01:26:57.994Z,32.63
2024-05-09T01:29:29.073Z,32.68
2024-05-09T01:32:05.879Z,32.71
2024-05-09T01:34:37.773Z,32.75
2024-05-09T01:37:09.151Z,32.78
2024-05-09T01:39:40.854Z,32.82
2024-05-09T01:42:12.150Z,32.85
2024-05-09T01:44:44.932Z,32.88
2024-05-09T01:47:16.417Z,32.91
2024-05-09T01:49:47.488Z,32.96
2024-05-09T01:52:18.723Z,32.98
2024-05-09T01:54:49.786Z,33.02
2024-05-09T01:57:21.137Z,33.03
2024-05-09T01:59:53.084Z,33.10
2024-05-09T02:02:24.420Z,33.12
2024-05-09T02:04:55.576Z,33.09
2024-05-09T02:07:27.351Z,33.21
2024-05-09T02:09:58.332Z,33.24
2024-05-09T02:12:29.672Z,33.27
2024-05-09T02:15:00.696Z,33.28
2024-05-09T02:17:32.190Z,33.33
2024-05-09T02:20:03.670Z,33.37
2024-05-09T02:22:37.258Z,33.42
2024-05-09T02:25:08.467Z,33.43
2024-05-09T02:27:39.685Z,33.43
2024-05-09T02:30:18.909Z,33.48
2024-05-09T02:32:57.543Z,33.53
2024-05-09T02:35:29.140Z,33.56
2024-05-09T02:38:01.413Z,33.61
2024-05-09T02:40:37.726Z,33.64
2024-05-09T02:43:13.403Z,33.66
2024-05-09T02:45:44.563Z,33.70
2024-05-09T02:48:16.097Z,33.69
2024-05-09T02:50:47.179Z,33.61
2024-05-09T02:53:19.003Z,33.79
2024-05-09T02:55:50.062Z,33.83
2024-05-09T02:58:21.609Z,33.88
2024-05-09T03:00:52.792Z,33.89
2024-05-09T03:03:24.490Z,33.86
2024-05-09T03:05:55.604Z,33.96
2024-05-09T03:08:29.007Z,33.98
2024-05-09T03:11:02.486Z,34.01
2024-05-09T03:13:33.835Z,34.04
2024-05-09T03:16:05.018Z,34.07
2024-05-09T03:18:36.409Z,34.13
2024-05-09T03:21:07.763Z,34.15
2024-05-09T03:23:44.955Z,34.09
2024-05-09T03:26:17.805Z,34.19
2024-05-09T03:28:49.174Z,34.25
2024-05-09T03:31:20.884Z,34.27
2024-05-09T03:33:52.463Z,34.31
2024-05-09T03:36:23.987Z,34.33
2024-05-09T03:38:55.153Z,34.32
2024-05-09T03:41:26.746Z,34.42
2024-05-09T03:43:58.129Z,34.43
2024-05-09T03:46:31.799Z,34.48
2024-05-09T03:49:03.260Z,34.50
2024-05-09T03:51:34.742Z,34.52
2024-05-09T03:54:06.339Z,34.54
2024-05-09T03:56:37.869Z,34.51
2024-05-09T03:59:09.230Z,34.59
2024-05-09T04:01:40.477Z,34.62
2024-05-09T04:04:12.435Z,34.67
2024-05-09T04:06:44.700Z,34.68
2024-05-09T04:09:17.627Z,34.72
2024-05-09T04:11:48.790Z,34.76
2024-05-09T04:14:21.524Z,34.78
2024-05-09T04:16:52.791Z,34.80
2024-05-09T04:19:26.826Z,34.74
2024-05-09T04:21:57.908Z,34.78
2024-05-09T04:24:29.231Z,34.85
2024-05-09T04:27:02.737Z,34.90
2024-05-09T04:29:37.519Z,34.95
2024-05-09T04:32:09.718Z,34.96
2024-05-09T04:34:43.591Z,35.00
2024-05-09T04:37:18.440Z,35.03
2024-05-09T04:39:50.085Z,35.06
2024-05-09T04:42:23.009Z,34.99
2024-05-09T04:44:58.292Z,35.10
2024-05-09T04:47:30.230Z,35.10
2024-05-09T04:50:01.883Z,35.17
2024-05-09T04:52:33.081Z,35.19
2024-05-09T04:55:04.450Z,35.11
2024-05-09T04:57:35.528Z,35.22
2024-05-09T05:00:14.330Z,35.26
2024-05-09T05:02:48.994Z,35.28
2024-05-09T05:05:23.367Z,35.32
2024-05-09T05:07:54.473Z,35.33
2024-05-09T05:10:29.697Z,35.26
2024-05-09T05:13:24.139Z,35.40
2024-05-09T05:15:59.707Z,35.43
2024-05-09T05:18:31.321Z,35.45
2024-05-09T05:21:03.429Z,35.48
2024-05-09T05:23:35.879Z,35.50
2024-05-09T05:26:07.650Z,35.51
2024-05-09T05:28:38.799Z,35.60
2024-05-09T05:31:10.255Z,35.57
2024-05-09T05:33:41.537Z,35.65
2024-05-09T05:36:12.582Z,35.57
2024-05-09T05:38:44.018Z,35.72
2024-05-09T05:41:15.610Z,35.73
2024-05-09T05:43:47.450Z,35.75
2024-05-09T05:46:18.844Z,35.72
2024-05-09T05:48:50.108Z,35.80
2024-05-09T05:51:21.685Z,35.84
2024-05-09T05:53:52.818Z,35.87
2024-05-09T05:56:24.210Z,35.92
2024-05-09T05:58:55.508Z,35.93
2024-05-09T06:01:27.202Z,35.98
2024-05-09T06:03:58.511Z,35.98
2024-05-09T06:06:30.293Z,36.05
2024-05-09T06:09:01.444Z,36.07
2024-05-09T06:11:33.271Z,36.06
2024-05-09T06:14:06.770Z,36.10
2024-05-09T06:16:38.493Z,36.08
2024-05-09T06:19:09.640Z,36.10
2024-05-09T06:21:40.537Z,36.03
2024-05-09T06:24:11.574Z,36.16
2024-05-09T06:26:46.127Z,36.05
2024-05-09T06:29:17.311Z,36.19
2024-05-09T06:31:48.759Z,36.18
2024-05-09T06:34:34.247Z,36.18
2024-05-09T06:37:06.390Z,36.22
2024-05-09T06:39:37.802Z,36.21
2024-05-09T06:42:11.596Z,36.20
2024-05-09T06:44:42.649Z,36.09
2024-05-09T06:47:14.103Z,36.19
2024-05-09T06:49:45.418Z,36.11
2024-05-09T06:52:20.110Z,36.17
2024-05-09T06:54:52.233Z,36.19
2024-05-09T06:57:24.554Z,36.15
2024-05-09T06:59:57.888Z,36.13
2024-05-09T07:02:29.594Z,36.10
2024-05-09T07:05:00.935Z,36.05
2024-05-09T07:07:32.687Z,36.02
2024-05-09T07:10:04.084Z,35.98
2024-05-09T07:12:38.856Z,35.94
2024-05-09T07:15:10.129Z,35.95
2024-05-09T07:17:44.438Z,35.90
2024-05-09T07:20:27.622Z,35.86
2024-05-09T07:23:05.567Z,35.78
2024-05-09T07:25:37.962Z,35.78
2024-05-09T07:28:16.764Z,35.68
2024-05-09T07:30:48.415Z,35.68
2024-05-09T07:33:24.616Z,35.68
2024-05-09T07:35:59.148Z,35.63
2024-05-09T07:38:30.784Z,35.57
2024-05-09T07:41:02.668Z,35.57
2024-05-09T07:43:34.061Z,35.53
2024-05-09T07:47:04.545Z,35.52
2024-05-09T07:50:35.594Z,35.48
2024-05-09T07:53:20.375Z,35.47
2024-05-09T07:54:41.136Z,35.43
2024-05-09T07:57:12.605Z,35.41
2024-05-09T07:59:45.482Z,35.39
2024-05-09T08:02:17.050Z,35.34
2024-05-09T08:04:48.814Z,35.35
2024-05-09T08:07:21.474Z,35.32
2024-05-09T08:09:53.009Z,35.30
2024-05-09T08:12:24.328Z,35.28
2024-05-09T08:14:57.675Z,35.25
2024-05-09T08:17:28.904Z,35.28
2024-05-09T08:20:02.030Z,35.25
2024-05-09T08:22:37.607Z,35.25
2024-05-09T08:25:10.707Z,35.24
2024-05-09T08:27:43.934Z,35.23
2024-05-09T08:30:21.962Z,35.22
2024-05-09T08:33:05.985Z,35.22
2024-05-09T08:35:38.422Z,35.20
2024-05-09T08:38:11.059Z,35.20
2024-05-09T08:40:43.810Z,35.13
2024-05-09T08:43:18.122Z,35.13
2024-05-09T08:45:52.718Z,34.82
2024-05-09T08:48:25.953Z,35.13
2024-05-09T08:51:00.572Z,35.18
2024-05-09T08:53:31.614Z,35.17
2024-05-09T08:56:04.147Z,34.96
2024-05-09T08:58:38.402Z,35.16
2024-05-09T09:01:10.564Z,35.14
2024-05-09T09:03:43.382Z,35.18
2024-05-09T09:06:16.913Z,35.14
2024-05-09T09:08:49.352Z,35.13
2024-05-09T09:11:23.642Z,35.17
2024-05-09T09:13:55.895Z,35.17
2024-05-09T09:16:38.766Z,35.14
2024-05-09T09:19:10.082Z,35.17
2024-05-09T09:21:41.952Z,35.16
2024-05-09T09:24:13.286Z,35.07
2024-05-09T09:26:47.273Z,35.02
2024-05-09T09:29:22.315Z,34.78
2024-05-09T09:32:09.852Z,34.99
2024-05-09T09:34:42.302Z,34.97
2024-05-09T09:37:13.942Z,34.97
2024-05-09T09:39:48.922Z,34.97
2024-05-09T09:42:22.506Z,34.99
2024-05-09T09:45:02.226Z,35.01
2024-05-09T09:47:41.267Z,34.95
2024-05-09T09:50:20.359Z,34.99
2024-05-09T09:52:56.553Z,34.98
2024-05-09T09:55:29.887Z,34.93
2024-05-09T09:58:02.347Z,34.97
2024-05-09T10:00:34.447Z,34.94
2024-05-09T10:03:06.681Z,34.93
2024-05-09T10:05:39.818Z,34.91
2024-05-09T10:08:13.942Z,34.91
2024-05-09T10:10:49.713Z,34.86
2024-05-09T10:13:21.544Z,34.94
2024-05-09T10:15:56.106Z,34.96
2024-05-09T10:18:41.893Z,34.88
2024-05-09T10:21:22.892Z,34.90
2024-05-09T10:24:07.002Z,34.86
2024-05-09T10:26:40.126Z,34.92
2024-05-09T10:29:19.386Z,34.54
2024-05-09T10:31:50.658Z,34.87
2024-05-09T10:34:24.834Z,34.79
2024-05-09T10:36:56.590Z,34.90
2024-05-09T10:39:28.889Z,34.91
2024-05-09T10:42:00.229Z,34.89
2024-05-09T10:44:32.098Z,34.87
2024-05-09T10:47:04.092Z,34.88
2024-05-09T10:49:35.651Z,34.81
2024-05-09T10:52:09.904Z,34.83
2024-05-09T10:54:42.195Z,34.81
2024-05-09T10:57:13.338Z,34.79
2024-05-09T10:59:44.768Z,34.87
2024-05-09T11:02:17.852Z,34.84
2024-05-09T11:04:49.552Z,34.77
2024-05-09T11:07:23.105Z,34.63
2024-05-09T11:09:55.439Z,34.79
2024-05-09T11:12:26.683Z,34.77
2024-05-09T11:14:58.088Z,34.80
2024-05-09T11:17:29.344Z,34.77
2024-05-09T11:20:01.719Z,34.78
2024-05-09T11:22:36.143Z,34.79
2024-05-09T11:25:08.059Z,34.77
2024-05-09T11:27:38.602Z,34.72
2024-05-09T11:30:27.023Z,34.58
2024-05-09T11:33:03.095Z,34.74
2024-05-09T11:36:06.853Z,34.70
2024-05-09T11:38:38.126Z,34.66
2024-05-09T11:41:09.079Z,34.63
2024-05-09T11:43:40.177Z,34.66
2024-05-09T11:46:11.877Z,34.64
2024-05-09T11:48:43.530Z,34.62
2024-05-09T11:51:14.939Z,34.64
2024-05-09T11:53:46.688Z,34.59
2024-05-09T11:56:18.791Z,34.53
2024-05-09T11:58:49.879Z,34.60
2024-05-09T12:01:23.086Z,34.56
2024-05-09T12:03:56.347Z,34.36
2024-05-09T12:06:28.128Z,34.55
2024-05-09T12:08:59.472Z,34.57
2024-05-09T12:11:32.090Z,34.54
2024-05-09T12:14:03.387Z,34.54
2024-05-09T12:16:35.470Z,34.51
2024-05-09T12:19:06.782Z,34.50
2024-05-09T12:21:38.314Z,34.43
2024-05-09T12:24:09.457Z,34.48
2024-05-09T12:26:41.247Z,34.42
2024-05-09T12:29:12.410Z,34.40
2024-05-09T12:31:43.425Z,34.33
2024-05-09T12:34:15.191Z,34.36
2024-05-09T12:36:46.727Z,34.33
2024-05-09T12:39:17.999Z,34.31
2024-05-09T12:41:51.002Z,34.30
2024-05-09T12:44:22.011Z,34.31
2024-05-09T12:46:58.469Z,34.24
2024-05-09T12:49:32.415Z,34.28
2024-05-09T12:52:04.146Z,34.29
2024-05-09T12:54:37.059Z,34.03
2024-05-09T12:57:08.696Z,34.18
2024-05-09T12:59:39.920Z,34.13
2024-05-09T13:02:11.518Z,34.01
2024-05-09T13:04:43.153Z,33.98
2024-05-09T13:07:14.845Z,33.87
2024-05-09T13:09:46.203Z,33.71
2024-05-09T13:12:17.057Z,33.58
2024-05-09T13:14:48.363Z,33.57
2024-05-09T13:17:20.562Z,33.32
2024-05-09T13:19:51.758Z,33.42
2024-05-09T13:22:23.272Z,33.36
2024-05-09T13:25:00.314Z,33.25
2024-05-09T13:27:34.207Z,33.01
2024-05-09T13:30:07.791Z,33.14
2024-05-09T13:32:43.462Z,33.04
2024-05-09T13:35:14.704Z,33.01
2024-05-09T13:37:46.196Z,32.92
2024-05-09T13:40:26.648Z,32.88
2024-05-09T13:43:01.556Z,32.81
2024-05-09T13:45:33.212Z,32.75
2024-05-09T13:48:07.835Z,32.68
2024-05-09T13:50:40.546Z,32.73
2024-05-09T13:53:12.016Z,32.62
2024-05-09T13:55:49.284Z,32.57
2024-05-09T13:58:21.228Z,32.57
2024-05-09T14:00:52.943Z,32.53
2024-05-09T14:03:25.943Z,32.42
2024-05-09T14:05:57.835Z,32.46
2024-05-09T14:08:29.679Z,32.44
2024-05-09T14:11:01.137Z,32.30
2024-05-09T14:13:32.115Z,32.25
2024-05-09T14:16:03.564Z,32.35
2024-05-09T14:18:35.660Z,32.25
2024-05-09T14:21:08.256Z,32.28
2024-05-09T14:23:39.931Z,32.26
2024-05-09T14:26:11.190Z,32.19
2024-05-09T14:28:42.712Z,32.21
2024-05-09T14:31:14.141Z,32.21
2024-05-09T14:33:45.264Z,32.12
2024-05-09T14:36:17.659Z,32.11
2024-05-09T14:38:49.105Z,32.06
2024-05-09T14:41:20.258Z,32.04
2024-05-09T14:43:52.894Z,32.02
2024-05-09T14:46:24.400Z,31.99
2024-05-09T14:48:59.823Z,31.98
2024-05-09T14:51:33.667Z,31.92
2024-05-09T14:54:04.616Z,31.87
2024-05-09T14:56:36.127Z,31.92
2024-05-09T14:59:11.323Z,31.93
2024-05-09T15:01:45.305Z,31.87
2024-05-09T15:04:17.649Z,31.79
2024-05-09T15:06:50.116Z,31.80
2024-05-09T15:09:22.140Z,31.70
2024-05-09T15:11:54.035Z,31.65
2024-05-09T15:14:25.432Z,31.66
2024-05-09T15:16:58.511Z,31.61
2024-05-09T15:19:32.929Z,31.57
2024-05-09T15:22:07.513Z,31.47
2024-05-09T15:24:42.203Z,31.56
2024-05-09T15:27:14.942Z,31.52
2024-05-09T15:29:46.427Z,31.48
2024-05-09T15:32:17.523Z,31.49
2024-05-09T15:34:48.959Z,31.45
2024-05-09T15:37:20.583Z,31.43
2024-05-09T15:39:51.910Z,31.39
2024-05-09T15:42:23.134Z,31.37
2024-05-09T15:44:54.920Z,31.32
2024-05-09T15:47:26.146Z,31.39
2024-05-09T15:50:00.304Z,31.37
2024-05-09T15:52:32.013Z,31.42
2024-05-09T15:55:03.138Z,31.38
2024-05-09T15:57:35.751Z,31.39
2024-05-09T16:00:12.246Z,31.32
2024-05-09T16:02:49.828Z,31.34
2024-05-09T16:05:21.533Z,31.32
2024-05-09T16:07:53.048Z,31.28
2024-05-09T16:10:32.578Z,31.24
2024-05-09T16:13:11.270Z,31.26
2024-05-09T16:15:45.345Z,31.22
2024-05-09T16:18:16.916Z,31.23
2024-05-09T16:20:50.098Z,31.21
2024-05-09T16:23:23.033Z,31.20
2024-05-09T16:25:54.738Z,31.20
2024-05-09T16:28:27.218Z,31.21
2024-05-09T16:30:59.588Z,31.20
2024-05-09T16:33:30.412Z,31.09
2024-05-09T16:36:02.021Z,31.21
2024-05-09T16:38:33.145Z,31.16
2024-05-09T16:41:06.293Z,31.15
2024-05-09T16:43:39.993Z,31.13
2024-05-09T16:46:11.738Z,31.14
2024-05-09T16:48:46.862Z,31.11
2024-05-09T16:51:18.442Z,31.11
2024-05-09T16:53:49.800Z,31.09
2024-05-09T16:56:25.103Z,31.10
2024-05-09T16:58:59.712Z,31.09
2024-05-09T17:01:32.282Z,31.08
2024-05-09T17:04:03.958Z,31.09
2024-05-09T17:06:35.786Z,31.08
2024-05-09T17:09:11.687Z,30.93
2024-05-09T17:11:47.661Z,31.05
2024-05-09T17:14:18.303Z,30.98
2024-05-09T17:16:49.745Z,31.06
2024-05-09T17:19:21.010Z,31.03
2024-05-09T17:21:52.235Z,30.97
2024-05-09T17:24:23.347Z,31.05
2024-05-09T17:26:54.901Z,30.98
2024-05-09T17:29:26.114Z,30.99
2024-05-09T17:31:57.406Z,30.99
2024-05-09T17:34:28.744Z,30.87
2024-05-09T17:37:01.713Z,30.97
2024-05-09T17:39:33.181Z,30.96
2024-05-09T17:42:04.782Z,30.93
2024-05-09T17:44:35.898Z,30.93
2024-05-09T17:47:07.394Z,30.90
2024-05-09T17:49:38.687Z,30.91
2024-05-09T17:52:10.104Z,30.90
2024-05-09T17:54:41.575Z,30.88
2024-05-09T17:57:13.071Z,30.89
2024-05-09T17:59:44.620Z,30.86
2024-05-09T18:02:15.963Z,30.86
2024-05-09T18:04:47.252Z,30.86
2024-05-09T18:07:18.707Z,30.81
2024-05-09T18:09:49.825Z,30.84
2024-05-09T18:12:21.368Z,30.82
2024-05-09T18:14:52.387Z,30.81
2024-05-09T18:17:25.644Z,30.79
2024-05-09T18:19:57.002Z,30.79
2024-05-09T18:22:28.362Z,30.78
2024-05-09T18:24:59.515Z,30.76
2024-05-09T18:27:31.121Z,30.75
2024-05-09T18:30:02.429Z,30.72
2024-05-09T18:32:34.364Z,30.71
2024-05-09T18:35:05.560Z,30.71
2024-05-09T18:37:37.071Z,30.69
2024-05-09T18:40:12.187Z,30.65
2024-05-09T18:42:49.554Z,30.66
2024-05-09T18:45:20.546Z,30.65
2024-05-09T18:47:51.948Z,30.63
2024-05-09T18:50:31.928Z,30.61
2024-05-09T18:53:13.040Z,30.60
2024-05-09T18:55:45.091Z,30.60
2024-05-09T18:58:18.606Z,30.61
2024-05-09T19:00:52.064Z,30.61
2024-05-09T19:03:25.500Z,30.58
2024-05-09T19:05:56.841Z,30.58
2024-05-09T19:08:28.403Z,30.56
2024-05-09T19:11:00.429Z,30.56
2024-05-09T19:13:32.020Z,30.54
2024-05-09T19:16:03.305Z,30.47
2024-05-09T19:18:34.883Z,30.49
2024-05-09T19:21:06.034Z,30.31
2024-05-09T19:23:38.482Z,30.47
2024-05-09T19:26:15.330Z,30.49
2024-05-09T19:28:46.873Z,30.49
2024-05-09T19:31:17.907Z,30.46
2024-05-09T19:33:49.413Z,30.45
2024-05-09T19:36:23.433Z,30.44
2024-05-09T19:38:54.592Z,30.44
2024-05-09T19:41:25.567Z,30.43
2024-05-09T19:43:56.913Z,30.44
2024-05-09T19:46:27.905Z,30.44
2024-05-09T19:48:59.727Z,30.44
2024-05-09T19:51:30.914Z,30.36
2024-05-09T19:54:02.395Z,30.41
2024-05-09T19:56:33.524Z,30.41
2024-05-09T19:59:05.520Z,30.37
2024-05-09T20:01:37.102Z,30.40
2024-05-09T20:04:08.478Z,30.32
2024-05-09T20:06:39.852Z,30.36
2024-05-09T20:09:11.062Z,30.37
2024-05-09T20:11:41.961Z,30.34
2024-05-09T20:14:14.114Z,30.25
2024-05-09T20:16:46.627Z,30.32
2024-05-09T20:19:18.247Z,30.29
2024-05-09T20:21:49.404Z,30.27
2024-05-09T20:24:20.528Z,30.30
2024-05-09T20:26:51.441Z,30.27
2024-05-09T20:29:22.805Z,30.11
2024-05-09T20:31:53.716Z,30.27
2024-05-09T20:34:25.028Z,30.26
2024-05-09T20:36:56.063Z,30.26
2024-05-09T20:39:27.823Z,30.26
2024-05-09T20:41:59.306Z,30.19
2024-05-09T20:44:30.162Z,30.18
2024-05-09T20:47:00.958Z,30.23
2024-05-09T20:49:32.397Z,30.20
2024-05-09T20:52:03.270Z,30.18
2024-05-09T20:54:34.522Z,30.17
2024-05-09T20:57:05.910Z,30.15
2024-05-09T20:59:38.858Z,30.16
2024-05-09T21:02:10.251Z,30.16
2024-05-09T21:04:41.861Z,30.15
2024-05-09T21:07:12.832Z,30.14
2024-05-09T21:09:43.993Z,30.13
2024-05-09T21:12:14.901Z,30.10
2024-05-09T21:14:46.002Z,30.12
2024-05-09T21:17:16.925Z,30.11
2024-05-09T21:19:48.064Z,30.09
2024-05-09T21:22:18.964Z,30.09
2024-05-09T21:24:50.139Z,30.08
2024-05-09T21:27:21.070Z,30.06
2024-05-09T21:29:52.164Z,30.05
2024-05-09T21:32:23.253Z,30.05
2024-05-09T21:34:54.406Z,30.02
2024-05-09T21:37:25.415Z,30.03
2024-05-09T21:39:56.919Z,29.98
2024-05-09T21:42:28.024Z,30.03
2024-05-09T21:44:59.097Z,30.02
2024-05-09T21:47:30.152Z,30.01
2024-05-09T21:50:01.295Z,29.99
2024-05-09T21:52:33.860Z,29.99
2024-05-09T21:55:05.080Z,29.96
2024-05-09T21:57:36.286Z,29.97
2024-05-09T22:00:28.140Z,29.95
2024-05-09T22:03:07.829Z,29.92
2024-05-09T22:05:42.907Z,29.94
2024-05-09T22:08:13.864Z,29.86
2024-05-09T22:10:45.451Z,29.88
2024-05-09T22:13:18.158Z,29.91
2024-05-09T22:15:49.527Z,29.88
2024-05-09T22:18:20.755Z,29.91
2024-05-09T22:20:51.915Z,29.91
2024-05-09T22:23:23.081Z,29.91
2024-05-09T22:25:54.288Z,29.90
2024-05-09T22:28:25.273Z,29.89
2024-05-09T22:30:56.843Z,29.90
2024-05-09T22:33:27.893Z,29.81
2024-05-09T22:35:58.985Z,29.86
2024-05-09T22:38:29.836Z,29.86
2024-05-09T22:41:01.185Z,29.84
2024-05-09T22:43:32.211Z,29.82
2024-05-09T22:46:04.831Z,29.66
2024-05-09T22:48:36.102Z,29.78
2024-05-09T22:51:07.660Z,29.79
2024-05-09T22:53:38.475Z,29.82
2024-05-09T22:56:09.799Z,29.82
2024-05-09T22:58:41.210Z,29.83
2024-05-09T23:01:17.364Z,29.77
2024-05-09T23:03:49.549Z,29.78
2024-05-09T23:06:20.483Z,29.68
2024-05-09T23:08:51.305Z,29.74
2024-05-09T23:11:22.393Z,29.79
2024-05-09T23:13:53.384Z,29.75
2024-05-09T23:16:24.520Z,29.74
2024-05-09T23:18:55.983Z,29.78
2024-05-09T23:21:27.269Z,29.70
2024-05-09T23:23:58.098Z,29.72
2024-05-09T23:26:29.176Z,29.73
2024-05-09T23:29:02.921Z,29.78
2024-05-09T23:31:34.074Z,29.76
2024-05-09T23:34:05.106Z,29.83
2024-05-09T23:36:36.384Z,29.91
2024-05-09T23:39:07.666Z,29.95
2024-05-09T23:41:38.821Z,29.99
2024-05-09T23:44:09.707Z,30.06
2024-05-09T23:46:40.978Z,30.11
2024-05-09T23:49:12.761Z,30.21
2024-05-09T23:51:44.199Z,30.32
2024-05-09T23:54:15.112Z,30.39
2024-05-09T23:56:46.649Z,30.44
2024-05-09T23:59:17.752Z,30.54
